South Thomaston, ME (04858)

3:32 PM EDT on July 01, 2015 (GMT -0400)
Saint George River GRN13 | | Change Station
CLOSE
Current Station
Personal Weather Station
Location: Saint George, ME
Elevation: 49 ft
Nearby Weather Stations

Elev 49 ft 44.04 °N, 69.19 °W | Updated 5 minutes ago

Overcast
Overcast
58.9 °F
Feels Like 58.9 °F
N
5.0
Wind Variable Wind from SW
Gusts 5.0 mph

Today
High -- | Low -- °F
--% Chance of Precip.
Yesterday
High -- | Low -- °F
Precip. -- in
4:57 AM 8:23 PM
Full, 100% visible
Pressure 29.75 in
Visibility 0.2 miles
Clouds Overcast 200 ft
Dew Point 54 °F
Humidity 83%
Rainfall 0.05 in
Snow Depth Not available.
UV 3 out of 12
Pollen 1.60 out of 12
Air Quality Not available.
Flu Activity Not available.
METAR KRKD 011915Z AUTO 06006KT 1/4SM OVC002 14/13 A2975 RMK AO1

More Conditions Fewer Conditions

Pressure 29.75 in
Visibility 0.2 miles
Clouds Overcast 200 ft
Dew Point 54 °F
Humidity 83%
Rainfall 0.05 in
Snow Depth Not available.
UV 3 out of 12
Pollen 1.60 out of 12
Air Quality Not available.
Flu Activity Not available.
METAR KRKD 011915Z AUTO 06006KT 1/4SM OVC002 14/13 A2975 RMK AO1

More Conditions Fewer Conditions

10-Day Weather Forecast

×

Almanac

Astronomy

Jul. 01, 2015 Rise Set
Actual Time
Civil Twilight
Nautical Twilight
Astronomical Twilight
Moon
Length of Visible Light
Length of Day
Tomorrow will be .
, % of the Moon is Illuminated

Today's Extremes

State Highs State Lows

Community

WunderPhotos

Upload Photos

1,834,255 photos uploaded!

WunderBlogs® & News

Nearby

Air Quality

  Air Quality AQ Index Pollutant
Not available.

Snow Depth

Station Depth Elevation

Earthquake Activity

City Distance Mag. Time & Date
Minimum magnitude displayed is 2.5.

Coastal Water Temperatures

Place Temperature

Stations

Nearby Weather Stations

Station Location Temp. Windchill Dew Point Humidity Wind Precip. Elev Updated Type